カラチ の空港の天気 - METARとTAF

ジンナー国際空港(カラチ) ( OPKC / KHI ) - パキスタン Karachi
飛行場実況気象(Metar)
観測時間02/18 03:55 PKT (02/17 22:55 UTC)
風向・風速西 3m/s
視程5000m
天気現象霧雨
全天の4割程度の雲 雲底高度 910m
全天の4割程度の雲 雲底高度 3050m
気温22℃
湿度73%
気圧1010hPa
METAROPKC 172255Z 26006KT 5000 DZ SCT030 SCT100 22/17 Q1010 NOSIG
過去の天気等 Google飛行場航空写真 Wunderground天気予報

過去48時間のMETAR

飛行場予報(TAF)
発表時間: 2/17 21:00 PKT (2/17 16:00 UTC)
予報対象時間: 17日23時 PKT ~ 19日5時 PKT
風向・風速西 5m/s
視程5000m
天気現象煙霧
全天の4割程度の雲 雲底高度 910m
全天の4割程度の雲 雲底高度 3050m
18日3時 PKT ~ 18日8時 PKT に一時的に
風向・風速西 5m/s
視程2000m
天気現象弱い雨
全天の4割程度の雲 雲底高度 910m
全天の8割程度の雲 雲底高度 1220m
全天を覆う雲 雲底高度 3050m
18日11時 PKT から
風向・風速西南西 3m/s 瞬間風速 8m/s
視程6000m
全天の4割程度の雲 雲底高度 3050m
18日23時 PKT から
風向・風速西 5m/s
視程5000m
天気現象煙霧
なし
TAF OPKC 171600Z 1718/1824 26010KT 5000 HZ SCT030 SCT100
TEMPO 1722/1803 27010KT 2000 -RA SCT030 BKN040 OVC100
FM180600 25005G15KT 6000 SCT100
FM181800 26010KT 5000 HZ NSC